sensor_id;sensor_type;location;lat;lon;timestamp;temperature;humidity
14727;DHT22;7454;51.256;8.176;2023-08-06T00:00:25;15.40;80.10
14727;DHT22;7454;51.256;8.176;2023-08-06T00:02:51;15.40;80.10
14727;DHT22;7454;51.256;8.176;2023-08-06T00:05:17;15.40;80.20
14727;DHT22;7454;51.256;8.176;2023-08-06T00:07:52;15.60;80.30
14727;DHT22;7454;51.256;8.176;2023-08-06T00:10:18;15.40;80.20
14727;DHT22;7454;51.256;8.176;2023-08-06T00:12:44;15.40;80.30
14727;DHT22;7454;51.256;8.176;2023-08-06T00:15:11;15.40;80.40
14727;DHT22;7454;51.256;8.176;2023-08-06T00:17:37;15.40;80.40
14727;DHT22;7454;51.256;8.176;2023-08-06T00:20:03;15.40;80.40
14727;DHT22;7454;51.256;8.176;2023-08-06T00:22:34;15.40;80.40
14727;DHT22;7454;51.256;8.176;2023-08-06T00:25:01;15.40;80.40
14727;DHT22;7454;51.256;8.176;2023-08-06T00:27:30;15.30;80.30
14727;DHT22;7454;51.256;8.176;2023-08-06T00:29:55;15.50;80.30
14727;DHT22;7454;51.256;8.176;2023-08-06T00:32:21;15.30;80.30
14727;DHT22;7454;51.256;8.176;2023-08-06T00:34:47;15.30;80.40
14727;DHT22;7454;51.256;8.176;2023-08-06T00:37:17;15.30;80.40
14727;DHT22;7454;51.256;8.176;2023-08-06T00:39:43;15.30;80.40
14727;DHT22;7454;51.256;8.176;2023-08-06T00:42:09;15.30;80.50
14727;DHT22;7454;51.256;8.176;2023-08-06T00:44:36;15.20;80.40
14727;DHT22;7454;51.256;8.176;2023-08-06T00:47:03;15.20;80.30
14727;DHT22;7454;51.256;8.176;2023-08-06T00:49:29;15.30;80.30
14727;DHT22;7454;51.256;8.176;2023-08-06T00:51:57;15.20;80.30
14727;DHT22;7454;51.256;8.176;2023-08-06T00:54:23;15.50;80.30
14727;DHT22;7454;51.256;8.176;2023-08-06T00:56:49;15.30;80.30
14727;DHT22;7454;51.256;8.176;2023-08-06T00:59:15;15.20;80.40
14727;DHT22;7454;51.256;8.176;2023-08-06T01:01:40;15.40;80.50
14727;DHT22;7454;51.256;8.176;2023-08-06T01:04:06;15.20;80.40
14727;DHT22;7454;51.256;8.176;2023-08-06T01:06:39;15.40;80.50
14727;DHT22;7454;51.256;8.176;2023-08-06T01:09:19;15.20;80.40
14727;DHT22;7454;51.256;8.176;2023-08-06T01:12:04;15.20;80.30
14727;DHT22;7454;51.256;8.176;2023-08-06T01:14:37;15.20;80.40
14727;DHT22;7454;51.256;8.176;2023-08-06T01:17:11;15.20;80.40
14727;DHT22;7454;51.256;8.176;2023-08-06T01:19:38;15.20;80.40
14727;DHT22;7454;51.256;8.176;2023-08-06T01:22:03;15.20;80.40
14727;DHT22;7454;51.256;8.176;2023-08-06T01:24:32;15.20;80.30
14727;DHT22;7454;51.256;8.176;2023-08-06T01:27:05;15.30;80.40
14727;DHT22;7454;51.256;8.176;2023-08-06T01:29:35;15.10;80.30
14727;DHT22;7454;51.256;8.176;2023-08-06T01:32:03;15.10;80.30
14727;DHT22;7454;51.256;8.176;2023-08-06T01:34:31;15.10;80.30
14727;DHT22;7454;51.256;8.176;2023-08-06T01:36:57;15.10;80.30
14727;DHT22;7454;51.256;8.176;2023-08-06T01:39:23;15.00;80.20
14727;DHT22;7454;51.256;8.176;2023-08-06T01:41:49;15.00;80.20
14727;DHT22;7454;51.256;8.176;2023-08-06T01:44:15;15.00;80.30
14727;DHT22;7454;51.256;8.176;2023-08-06T01:46:41;15.20;80.40
14727;DHT22;7454;51.256;8.176;2023-08-06T01:49:06;15.00;80.30
14727;DHT22;7454;51.256;8.176;2023-08-06T01:51:32;14.90;80.40
14727;DHT22;7454;51.256;8.176;2023-08-06T01:53:58;15.00;80.40
14727;DHT22;7454;51.256;8.176;2023-08-06T01:56:24;15.10;80.50
14727;DHT22;7454;51.256;8.176;2023-08-06T01:58:50;15.00;80.40
14727;DHT22;7454;51.256;8.176;2023-08-06T02:01:17;15.00;80.50
14727;DHT22;7454;51.256;8.176;2023-08-06T02:03:42;15.00;80.50
14727;DHT22;7454;51.256;8.176;2023-08-06T02:06:09;15.00;80.40
14727;DHT22;7454;51.256;8.176;2023-08-06T02:08:35;15.00;80.40
14727;DHT22;7454;51.256;8.176;2023-08-06T02:11:01;15.00;80.30
14727;DHT22;7454;51.256;8.176;2023-08-06T02:13:29;15.00;80.30
14727;DHT22;7454;51.256;8.176;2023-08-06T02:15:55;15.00;80.30
14727;DHT22;7454;51.256;8.176;2023-08-06T02:18:21;15.20;80.50
14727;DHT22;7454;51.256;8.176;2023-08-06T02:20:59;15.00;80.40
14727;DHT22;7454;51.256;8.176;2023-08-06T02:23:24;15.00;80.50
14727;DHT22;7454;51.256;8.176;2023-08-06T02:25:57;15.00;80.40
14727;DHT22;7454;51.256;8.176;2023-08-06T02:28:27;15.00;80.50
14727;DHT22;7454;51.256;8.176;2023-08-06T02:30:53;14.90;80.40
14727;DHT22;7454;51.256;8.176;2023-08-06T02:33:19;15.10;80.50
14727;DHT22;7454;51.256;8.176;2023-08-06T02:35:44;15.20;80.60
14727;DHT22;7454;51.256;8.176;2023-08-06T02:38:10;15.10;80.60
14727;DHT22;7454;51.256;8.176;2023-08-06T02:40:36;15.00;80.50
14727;DHT22;7454;51.256;8.176;2023-08-06T02:43:02;15.00;80.60
14727;DHT22;7454;51.256;8.176;2023-08-06T02:45:28;15.00;80.60
14727;DHT22;7454;51.256;8.176;2023-08-06T02:47:54;15.10;80.70
14727;DHT22;7454;51.256;8.176;2023-08-06T02:50:20;15.20;80.80
14727;DHT22;7454;51.256;8.176;2023-08-06T02:52:45;15.10;80.70
14727;DHT22;7454;51.256;8.176;2023-08-06T02:55:11;15.10;80.70
14727;DHT22;7454;51.256;8.176;2023-08-06T02:57:41;15.00;80.70
14727;DHT22;7454;51.256;8.176;2023-08-06T03:00:07;15.10;80.70
14727;DHT22;7454;51.256;8.176;2023-08-06T03:02:33;15.00;80.70
14727;DHT22;7454;51.256;8.176;2023-08-06T03:05:07;15.00;80.60
14727;DHT22;7454;51.256;8.176;2023-08-06T03:07:36;15.00;80.70
14727;DHT22;7454;51.256;8.176;2023-08-06T03:10:10;15.10;80.80
14727;DHT22;7454;51.256;8.176;2023-08-06T03:12:35;15.00;80.60
14727;DHT22;7454;51.256;8.176;2023-08-06T03:15:03;15.00;80.70
14727;DHT22;7454;51.256;8.176;2023-08-06T03:17:30;15.00;80.70
14727;DHT22;7454;51.256;8.176;2023-08-06T03:19:56;15.00;80.70
14727;DHT22;7454;51.256;8.176;2023-08-06T03:22:23;15.10;80.70
14727;DHT22;7454;51.256;8.176;2023-08-06T03:24:52;14.90;80.70
14727;DHT22;7454;51.256;8.176;2023-08-06T03:27:20;14.90;80.70
14727;DHT22;7454;51.256;8.176;2023-08-06T03:29:48;14.90;80.70
14727;DHT22;7454;51.256;8.176;2023-08-06T03:32:16;15.00;80.70
14727;DHT22;7454;51.256;8.176;2023-08-06T03:34:42;15.10;80.70
14727;DHT22;7454;51.256;8.176;2023-08-06T03:37:08;15.00;80.70
14727;DHT22;7454;51.256;8.176;2023-08-06T03:39:34;14.90;80.60
14727;DHT22;7454;51.256;8.176;2023-08-06T03:42:00;14.90;80.60
14727;DHT22;7454;51.256;8.176;2023-08-06T03:44:27;14.90;80.80
14727;DHT22;7454;51.256;8.176;2023-08-06T03:46:54;14.90;80.80
14727;DHT22;7454;51.256;8.176;2023-08-06T03:49:20;14.90;80.80
14727;DHT22;7454;51.256;8.176;2023-08-06T03:51:46;15.00;80.80
14727;DHT22;7454;51.256;8.176;2023-08-06T03:54:12;14.90;80.80
14727;DHT22;7454;51.256;8.176;2023-08-06T03:56:37;14.80;80.70
14727;DHT22;7454;51.256;8.176;2023-08-06T03:59:04;14.90;80.80
14727;DHT22;7454;51.256;8.176;2023-08-06T04:01:29;15.00;80.80
14727;DHT22;7454;51.256;8.176;2023-08-06T04:03:55;15.10;80.80
14727;DHT22;7454;51.256;8.176;2023-08-06T04:06:21;14.80;80.80
14727;DHT22;7454;51.256;8.176;2023-08-06T04:08:46;14.90;80.90
14727;DHT22;7454;51.256;8.176;2023-08-06T04:11:12;15.00;80.90
14727;DHT22;7454;51.256;8.176;2023-08-06T04:13:44;15.00;80.90
14727;DHT22;7454;51.256;8.176;2023-08-06T04:16:10;15.00;80.90
14727;DHT22;7454;51.256;8.176;2023-08-06T04:18:36;15.00;80.90
14727;DHT22;7454;51.256;8.176;2023-08-06T04:21:02;14.90;80.90
14727;DHT22;7454;51.256;8.176;2023-08-06T04:23:27;15.00;80.80
14727;DHT22;7454;51.256;8.176;2023-08-06T04:25:57;15.00;80.90
14727;DHT22;7454;51.256;8.176;2023-08-06T04:28:25;15.00;80.80
14727;DHT22;7454;51.256;8.176;2023-08-06T04:30:51;15.00;80.80
14727;DHT22;7454;51.256;8.176;2023-08-06T04:33:19;15.00;80.80
14727;DHT22;7454;51.256;8.176;2023-08-06T04:35:46;15.00;80.80
14727;DHT22;7454;51.256;8.176;2023-08-06T04:38:11;14.90;80.70
14727;DHT22;7454;51.256;8.176;2023-08-06T04:40:37;15.10;80.80
14727;DHT22;7454;51.256;8.176;2023-08-06T04:43:03;15.00;80.80
14727;DHT22;7454;51.256;8.176;2023-08-06T04:45:32;15.20;80.90
14727;DHT22;7454;51.256;8.176;2023-08-06T04:47:58;15.00;80.80
14727;DHT22;7454;51.256;8.176;2023-08-06T04:50:23;15.00;80.80
14727;DHT22;7454;51.256;8.176;2023-08-06T04:52:49;15.00;80.80
14727;DHT22;7454;51.256;8.176;2023-08-06T04:55:14;15.10;80.80
14727;DHT22;7454;51.256;8.176;2023-08-06T04:57:40;15.10;80.90
14727;DHT22;7454;51.256;8.176;2023-08-06T05:00:06;15.10;80.80
14727;DHT22;7454;51.256;8.176;2023-08-06T05:02:32;15.10;80.80
14727;DHT22;7454;51.256;8.176;2023-08-06T05:04:59;15.10;80.90
14727;DHT22;7454;51.256;8.176;2023-08-06T05:07:25;15.10;80.80
14727;DHT22;7454;51.256;8.176;2023-08-06T05:09:51;15.20;80.90
14727;DHT22;7454;51.256;8.176;2023-08-06T05:12:16;15.20;80.90
14727;DHT22;7454;51.256;8.176;2023-08-06T05:14:42;15.20;81.00
14727;DHT22;7454;51.256;8.176;2023-08-06T05:17:08;15.20;81.00
14727;DHT22;7454;51.256;8.176;2023-08-06T05:19:34;15.10;80.90
14727;DHT22;7454;51.256;8.176;2023-08-06T05:21:59;15.20;81.00
14727;DHT22;7454;51.256;8.176;2023-08-06T05:24:26;15.10;81.00
14727;DHT22;7454;51.256;8.176;2023-08-06T05:26:52;15.20;81.00
14727;DHT22;7454;51.256;8.176;2023-08-06T05:29:18;15.20;81.00
14727;DHT22;7454;51.256;8.176;2023-08-06T05:31:43;15.30;81.10
14727;DHT22;7454;51.256;8.176;2023-08-06T05:34:09;15.40;81.20
14727;DHT22;7454;51.256;8.176;2023-08-06T05:36:34;15.30;81.00
14727;DHT22;7454;51.256;8.176;2023-08-06T05:39:00;15.50;81.00
14727;DHT22;7454;51.256;8.176;2023-08-06T05:41:26;15.40;80.90
14727;DHT22;7454;51.256;8.176;2023-08-06T05:43:51;15.50;80.90
14727;DHT22;7454;51.256;8.176;2023-08-06T05:46:17;15.50;80.90
14727;DHT22;7454;51.256;8.176;2023-08-06T05:48:42;15.50;80.90
14727;DHT22;7454;51.256;8.176;2023-08-06T05:51:08;15.50;80.90
14727;DHT22;7454;51.256;8.176;2023-08-06T05:53:34;15.50;80.90
14727;DHT22;7454;51.256;8.176;2023-08-06T05:56:00;15.50;80.80
14727;DHT22;7454;51.256;8.176;2023-08-06T05:58:25;15.50;80.80
14727;DHT22;7454;51.256;8.176;2023-08-06T06:00:54;15.50;80.80
14727;DHT22;7454;51.256;8.176;2023-08-06T06:03:20;15.50;80.70
14727;DHT22;7454;51.256;8.176;2023-08-06T06:05:45;15.60;80.60
14727;DHT22;7454;51.256;8.176;2023-08-06T06:08:11;15.50;80.60
14727;DHT22;7454;51.256;8.176;2023-08-06T06:10:36;15.40;80.60
14727;DHT22;7454;51.256;8.176;2023-08-06T06:13:02;15.40;80.70
14727;DHT22;7454;51.256;8.176;2023-08-06T06:15:27;15.40;80.50
14727;DHT22;7454;51.256;8.176;2023-08-06T06:17:53;15.40;80.60
14727;DHT22;7454;51.256;8.176;2023-08-06T06:20:19;15.50;80.60
14727;DHT22;7454;51.256;8.176;2023-08-06T06:22:44;15.50;80.50
14727;DHT22;7454;51.256;8.176;2023-08-06T06:25:10;15.60;80.60
14727;DHT22;7454;51.256;8.176;2023-08-06T06:27:36;15.60;80.60
14727;DHT22;7454;51.256;8.176;2023-08-06T06:30:01;15.60;80.60
14727;DHT22;7454;51.256;8.176;2023-08-06T06:32:28;15.70;80.60
14727;DHT22;7454;51.256;8.176;2023-08-06T06:34:53;15.70;80.50
14727;DHT22;7454;51.256;8.176;2023-08-06T06:37:19;15.80;80.40
14727;DHT22;7454;51.256;8.176;2023-08-06T06:39:45;15.80;80.50
14727;DHT22;7454;51.256;8.176;2023-08-06T06:42:11;15.90;80.50
14727;DHT22;7454;51.256;8.176;2023-08-06T06:44:42;16.00;80.40
14727;DHT22;7454;51.256;8.176;2023-08-06T06:47:08;16.00;80.30
14727;DHT22;7454;51.256;8.176;2023-08-06T06:49:34;16.10;80.40
14727;DHT22;7454;51.256;8.176;2023-08-06T06:51:59;16.20;80.40
14727;DHT22;7454;51.256;8.176;2023-08-06T06:54:25;16.20;80.30
14727;DHT22;7454;51.256;8.176;2023-08-06T06:56:51;16.30;80.20
14727;DHT22;7454;51.256;8.176;2023-08-06T06:59:16;16.30;80.20
14727;DHT22;7454;51.256;8.176;2023-08-06T07:01:42;16.40;80.20
14727;DHT22;7454;51.256;8.176;2023-08-06T07:04:08;16.50;80.20
14727;DHT22;7454;51.256;8.176;2023-08-06T07:06:33;16.50;80.20
14727;DHT22;7454;51.256;8.176;2023-08-06T07:08:59;16.60;80.10
14727;DHT22;7454;51.256;8.176;2023-08-06T07:11:25;16.60;80.00
14727;DHT22;7454;51.256;8.176;2023-08-06T07:13:55;16.70;79.80
14727;DHT22;7454;51.256;8.176;2023-08-06T07:16:22;16.80;79.90
14727;DHT22;7454;51.256;8.176;2023-08-06T07:18:47;16.90;80.00
14727;DHT22;7454;51.256;8.176;2023-08-06T07:21:13;17.00;79.90
14727;DHT22;7454;51.256;8.176;2023-08-06T07:23:39;17.10;80.20
14727;DHT22;7454;51.256;8.176;2023-08-06T07:26:05;17.20;79.90
14727;DHT22;7454;51.256;8.176;2023-08-06T07:28:30;17.30;80.00
14727;DHT22;7454;51.256;8.176;2023-08-06T07:30:56;17.50;79.90
14727;DHT22;7454;51.256;8.176;2023-08-06T07:33:21;17.50;79.80
14727;DHT22;7454;51.256;8.176;2023-08-06T07:35:47;17.70;79.90
14727;DHT22;7454;51.256;8.176;2023-08-06T07:38:13;17.80;79.20
14727;DHT22;7454;51.256;8.176;2023-08-06T07:40:38;17.90;79.30
14727;DHT22;7454;51.256;8.176;2023-08-06T07:43:04;18.00;79.40
14727;DHT22;7454;51.256;8.176;2023-08-06T07:45:34;18.10;79.60
14727;DHT22;7454;51.256;8.176;2023-08-06T07:48:00;18.30;79.80
14727;DHT22;7454;51.256;8.176;2023-08-06T07:50:27;18.50;79.40
14727;DHT22;7454;51.256;8.176;2023-08-06T07:52:52;18.50;79.40
14727;DHT22;7454;51.256;8.176;2023-08-06T07:55:18;18.50;79.30
14727;DHT22;7454;51.256;8.176;2023-08-06T07:57:43;18.50;79.50
14727;DHT22;7454;51.256;8.176;2023-08-06T08:00:09;18.50;79.10
14727;DHT22;7454;51.256;8.176;2023-08-06T08:02:41;18.50;79.30
14727;DHT22;7454;51.256;8.176;2023-08-06T08:05:06;18.50;79.10
14727;DHT22;7454;51.256;8.176;2023-08-06T08:07:33;18.30;79.10
14727;DHT22;7454;51.256;8.176;2023-08-06T08:09:59;18.20;79.20
14727;DHT22;7454;51.256;8.176;2023-08-06T08:12:25;18.00;79.00
14727;DHT22;7454;51.256;8.176;2023-08-06T08:14:51;18.00;78.80
14727;DHT22;7454;51.256;8.176;2023-08-06T08:17:17;18.00;78.90
14727;DHT22;7454;51.256;8.176;2023-08-06T08:19:43;18.00;79.10
14727;DHT22;7454;51.256;8.176;2023-08-06T08:22:08;17.90;79.20
14727;DHT22;7454;51.256;8.176;2023-08-06T08:24:34;17.90;79.30
14727;DHT22;7454;51.256;8.176;2023-08-06T08:27:00;17.80;79.20
14727;DHT22;7454;51.256;8.176;2023-08-06T08:29:26;17.80;79.30
14727;DHT22;7454;51.256;8.176;2023-08-06T08:31:51;17.90;79.40
14727;DHT22;7454;51.256;8.176;2023-08-06T08:34:17;17.80;79.40
14727;DHT22;7454;51.256;8.176;2023-08-06T08:36:43;17.80;79.70
14727;DHT22;7454;51.256;8.176;2023-08-06T08:39:09;17.80;79.80
14727;DHT22;7454;51.256;8.176;2023-08-06T08:41:36;17.90;80.10
14727;DHT22;7454;51.256;8.176;2023-08-06T08:44:02;18.00;80.20
14727;DHT22;7454;51.256;8.176;2023-08-06T08:46:31;18.10;80.10
14727;DHT22;7454;51.256;8.176;2023-08-06T08:48:58;18.10;79.60
14727;DHT22;7454;51.256;8.176;2023-08-06T08:51:25;18.20;79.90
14727;DHT22;7454;51.256;8.176;2023-08-06T08:53:53;18.20;79.40
14727;DHT22;7454;51.256;8.176;2023-08-06T08:56:23;18.30;79.60
14727;DHT22;7454;51.256;8.176;2023-08-06T08:58:49;18.40;79.50
14727;DHT22;7454;51.256;8.176;2023-08-06T09:01:15;18.50;79.20
14727;DHT22;7454;51.256;8.176;2023-08-06T09:03:43;18.50;79.40
14727;DHT22;7454;51.256;8.176;2023-08-06T09:06:11;18.80;79.70
14727;DHT22;7454;51.256;8.176;2023-08-06T09:08:41;18.80;79.20
14727;DHT22;7454;51.256;8.176;2023-08-06T09:11:17;19.00;79.20
14727;DHT22;7454;51.256;8.176;2023-08-06T09:13:46;19.00;78.80
14727;DHT22;7454;51.256;8.176;2023-08-06T09:16:18;19.00;78.80
14727;DHT22;7454;51.256;8.176;2023-08-06T09:18:44;19.10;78.90
14727;DHT22;7454;51.256;8.176;2023-08-06T09:21:14;19.10;79.10
14727;DHT22;7454;51.256;8.176;2023-08-06T09:23:43;19.20;79.10
14727;DHT22;7454;51.256;8.176;2023-08-06T09:26:10;19.20;79.20
14727;DHT22;7454;51.256;8.176;2023-08-06T09:28:37;19.10;79.10
14727;DHT22;7454;51.256;8.176;2023-08-06T09:31:08;19.10;79.30
14727;DHT22;7454;51.256;8.176;2023-08-06T09:33:37;19.00;79.60
14727;DHT22;7454;51.256;8.176;2023-08-06T09:36:07;18.90;79.60
14727;DHT22;7454;51.256;8.176;2023-08-06T09:38:37;18.80;79.70
14727;DHT22;7454;51.256;8.176;2023-08-06T09:41:05;18.70;79.70
14727;DHT22;7454;51.256;8.176;2023-08-06T09:43:34;18.70;79.70
14727;DHT22;7454;51.256;8.176;2023-08-06T09:46:10;18.50;79.80
14727;DHT22;7454;51.256;8.176;2023-08-06T09:48:38;18.40;79.60
14727;DHT22;7454;51.256;8.176;2023-08-06T09:51:05;18.40;80.00
14727;DHT22;7454;51.256;8.176;2023-08-06T09:53:32;18.40;80.20
14727;DHT22;7454;51.256;8.176;2023-08-06T09:55:59;18.40;80.10
14727;DHT22;7454;51.256;8.176;2023-08-06T09:58:25;18.40;80.10
14727;DHT22;7454;51.256;8.176;2023-08-06T10:00:51;18.30;79.90
14727;DHT22;7454;51.256;8.176;2023-08-06T10:03:18;18.30;79.80
14727;DHT22;7454;51.256;8.176;2023-08-06T10:05:44;18.30;80.00
14727;DHT22;7454;51.256;8.176;2023-08-06T10:08:09;18.40;80.00
14727;DHT22;7454;51.256;8.176;2023-08-06T10:10:35;18.40;80.20
14727;DHT22;7454;51.256;8.176;2023-08-06T10:13:02;18.40;80.20
14727;DHT22;7454;51.256;8.176;2023-08-06T10:15:30;18.40;80.10
14727;DHT22;7454;51.256;8.176;2023-08-06T10:17:57;18.40;80.10
14727;DHT22;7454;51.256;8.176;2023-08-06T10:20:24;18.40;80.10
14727;DHT22;7454;51.256;8.176;2023-08-06T10:23:02;18.40;80.00
14727;DHT22;7454;51.256;8.176;2023-08-06T10:25:32;18.30;79.90
14727;DHT22;7454;51.256;8.176;2023-08-06T10:27:59;18.40;79.90
14727;DHT22;7454;51.256;8.176;2023-08-06T10:30:26;18.30;80.10
14727;DHT22;7454;51.256;8.176;2023-08-06T10:32:54;18.30;80.20
14727;DHT22;7454;51.256;8.176;2023-08-06T10:38:12;18.30;80.00
14727;DHT22;7454;51.256;8.176;2023-08-06T10:40:41;18.40;80.00
14727;DHT22;7454;51.256;8.176;2023-08-06T10:43:29;18.30;79.80
14727;DHT22;7454;51.256;8.176;2023-08-06T10:45:58;18.40;80.10
14727;DHT22;7454;51.256;8.176;2023-08-06T10:48:30;18.40;79.90
14727;DHT22;7454;51.256;8.176;2023-08-06T10:51:00;18.50;79.90
14727;DHT22;7454;51.256;8.176;2023-08-06T10:53:26;18.50;79.80
14727;DHT22;7454;51.256;8.176;2023-08-06T10:55:51;18.60;80.10
14727;DHT22;7454;51.256;8.176;2023-08-06T10:58:17;18.60;79.50
14727;DHT22;7454;51.256;8.176;2023-08-06T11:00:43;18.60;79.60
14727;DHT22;7454;51.256;8.176;2023-08-06T11:03:09;18.60;79.80
14727;DHT22;7454;51.256;8.176;2023-08-06T11:05:38;18.60;79.60
14727;DHT22;7454;51.256;8.176;2023-08-06T11:08:04;18.50;79.60
14727;DHT22;7454;51.256;8.176;2023-08-06T11:10:32;18.50;79.70
14727;DHT22;7454;51.256;8.176;2023-08-06T11:13:02;18.60;80.00
14727;DHT22;7454;51.256;8.176;2023-08-06T11:15:29;18.70;79.50
14727;DHT22;7454;51.256;8.176;2023-08-06T11:17:55;18.80;79.30
14727;DHT22;7454;51.256;8.176;2023-08-06T11:20:21;18.90;79.80
14727;DHT22;7454;51.256;8.176;2023-08-06T11:22:48;19.00;79.40
14727;DHT22;7454;51.256;8.176;2023-08-06T11:25:14;19.00;79.30
14727;DHT22;7454;51.256;8.176;2023-08-06T11:27:39;19.00;79.30
14727;DHT22;7454;51.256;8.176;2023-08-06T11:30:05;19.00;79.00
14727;DHT22;7454;51.256;8.176;2023-08-06T11:32:31;19.00;79.20
14727;DHT22;7454;51.256;8.176;2023-08-06T11:34:58;19.10;79.30
14727;DHT22;7454;51.256;8.176;2023-08-06T11:37:24;19.10;79.10
14727;DHT22;7454;51.256;8.176;2023-08-06T11:39:50;19.10;79.20
14727;DHT22;7454;51.256;8.176;2023-08-06T11:42:16;19.30;78.90
14727;DHT22;7454;51.256;8.176;2023-08-06T11:44:42;19.30;78.90
14727;DHT22;7454;51.256;8.176;2023-08-06T11:47:15;19.30;79.40
14727;DHT22;7454;51.256;8.176;2023-08-06T11:49:48;19.30;78.40
14727;DHT22;7454;51.256;8.176;2023-08-06T11:52:18;19.30;78.70
14727;DHT22;7454;51.256;8.176;2023-08-06T11:55:07;19.20;78.60
14727;DHT22;7454;51.256;8.176;2023-08-06T11:57:34;19.20;79.10
14727;DHT22;7454;51.256;8.176;2023-08-06T12:00:03;19.10;78.80
14727;DHT22;7454;51.256;8.176;2023-08-06T12:02:41;19.00;78.80
14727;DHT22;7454;51.256;8.176;2023-08-06T12:05:10;19.00;79.00
14727;DHT22;7454;51.256;8.176;2023-08-06T12:07:37;18.90;79.10
14727;DHT22;7454;51.256;8.176;2023-08-06T12:10:13;18.80;79.60
14727;DHT22;7454;51.256;8.176;2023-08-06T12:12:40;18.50;79.80
14727;DHT22;7454;51.256;8.176;2023-08-06T12:15:06;18.30;79.70
14727;DHT22;7454;51.256;8.176;2023-08-06T12:17:32;18.00;80.30
14727;DHT22;7454;51.256;8.176;2023-08-06T12:19:58;17.80;80.90
14727;DHT22;7454;51.256;8.176;2023-08-06T12:22:24;17.50;80.90
14727;DHT22;7454;51.256;8.176;2023-08-06T12:24:50;17.50;80.80
14727;DHT22;7454;51.256;8.176;2023-08-06T12:27:16;17.40;80.90
14727;DHT22;7454;51.256;8.176;2023-08-06T12:29:42;17.50;80.80
14727;DHT22;7454;51.256;8.176;2023-08-06T12:32:10;17.30;81.20
14727;DHT22;7454;51.256;8.176;2023-08-06T12:34:37;17.20;80.90
14727;DHT22;7454;51.256;8.176;2023-08-06T12:37:04;17.10;81.00
14727;DHT22;7454;51.256;8.176;2023-08-06T12:39:30;17.00;80.70
14727;DHT22;7454;51.256;8.176;2023-08-06T12:41:58;17.00;80.90
14727;DHT22;7454;51.256;8.176;2023-08-06T12:44:24;17.00;81.20
14727;DHT22;7454;51.256;8.176;2023-08-06T12:46:50;16.90;81.20
14727;DHT22;7454;51.256;8.176;2023-08-06T12:49:17;17.00;81.70
14727;DHT22;7454;51.256;8.176;2023-08-06T12:51:43;17.10;81.40
14727;DHT22;7454;51.256;8.176;2023-08-06T12:54:19;17.00;81.40
14727;DHT22;7454;51.256;8.176;2023-08-06T12:56:45;16.90;81.40
14727;DHT22;7454;51.256;8.176;2023-08-06T12:59:13;17.10;81.90
14727;DHT22;7454;51.256;8.176;2023-08-06T13:01:40;17.10;81.80
14727;DHT22;7454;51.256;8.176;2023-08-06T13:04:06;17.10;81.30
14727;DHT22;7454;51.256;8.176;2023-08-06T13:06:32;17.10;81.70
14727;DHT22;7454;51.256;8.176;2023-08-06T13:09:11;17.10;81.40
14727;DHT22;7454;51.256;8.176;2023-08-06T13:11:37;17.10;81.60
14727;DHT22;7454;51.256;8.176;2023-08-06T13:14:11;17.00;81.10
14727;DHT22;7454;51.256;8.176;2023-08-06T13:16:38;17.00;81.70
14727;DHT22;7454;51.256;8.176;2023-08-06T13:19:05;17.00;81.70
14727;DHT22;7454;51.256;8.176;2023-08-06T13:21:32;17.00;81.80
14727;DHT22;7454;51.256;8.176;2023-08-06T13:23:59;16.90;81.60
14727;DHT22;7454;51.256;8.176;2023-08-06T13:26:27;16.80;80.90
14727;DHT22;7454;51.256;8.176;2023-08-06T13:28:53;16.70;81.20
14727;DHT22;7454;51.256;8.176;2023-08-06T13:31:26;16.70;81.50
14727;DHT22;7454;51.256;8.176;2023-08-06T13:33:54;16.50;81.00
14727;DHT22;7454;51.256;8.176;2023-08-06T13:36:21;16.60;80.90
14727;DHT22;7454;51.256;8.176;2023-08-06T13:38:47;16.50;81.10
14727;DHT22;7454;51.256;8.176;2023-08-06T13:41:13;16.30;81.20
14727;DHT22;7454;51.256;8.176;2023-08-06T13:43:39;16.30;80.90
14727;DHT22;7454;51.256;8.176;2023-08-06T13:46:05;16.30;81.10
14727;DHT22;7454;51.256;8.176;2023-08-06T13:48:30;16.00;80.80
14727;DHT22;7454;51.256;8.176;2023-08-06T13:50:56;16.10;81.00
14727;DHT22;7454;51.256;8.176;2023-08-06T13:53:22;16.10;81.30
14727;DHT22;7454;51.256;8.176;2023-08-06T13:55:47;16.10;81.20
14727;DHT22;7454;51.256;8.176;2023-08-06T13:58:13;16.10;80.90
14727;DHT22;7454;51.256;8.176;2023-08-06T14:00:39;16.20;81.40
14727;DHT22;7454;51.256;8.176;2023-08-06T14:03:05;16.20;80.90
14727;DHT22;7454;51.256;8.176;2023-08-06T14:05:30;16.20;81.10
14727;DHT22;7454;51.256;8.176;2023-08-06T14:07:56;16.40;81.30
14727;DHT22;7454;51.256;8.176;2023-08-06T14:10:22;16.30;81.20
14727;DHT22;7454;51.256;8.176;2023-08-06T14:12:47;16.30;81.20
14727;DHT22;7454;51.256;8.176;2023-08-06T14:15:13;16.30;80.90
14727;DHT22;7454;51.256;8.176;2023-08-06T14:17:39;16.40;81.00
14727;DHT22;7454;51.256;8.176;2023-08-06T14:20:05;16.40;80.60
14727;DHT22;7454;51.256;8.176;2023-08-06T14:22:33;16.30;80.50
14727;DHT22;7454;51.256;8.176;2023-08-06T14:24:59;16.30;80.80
14727;DHT22;7454;51.256;8.176;2023-08-06T14:27:25;16.40;80.80
14727;DHT22;7454;51.256;8.176;2023-08-06T14:29:50;16.30;80.70
14727;DHT22;7454;51.256;8.176;2023-08-06T14:32:16;16.30;80.50
14727;DHT22;7454;51.256;8.176;2023-08-06T14:34:46;16.30;80.40
14727;DHT22;7454;51.256;8.176;2023-08-06T14:37:12;16.30;80.50
14727;DHT22;7454;51.256;8.176;2023-08-06T14:39:37;16.30;80.40
14727;DHT22;7454;51.256;8.176;2023-08-06T14:42:04;16.20;80.20
14727;DHT22;7454;51.256;8.176;2023-08-06T14:44:30;16.20;80.20
14727;DHT22;7454;51.256;8.176;2023-08-06T14:46:55;16.20;80.10
14727;DHT22;7454;51.256;8.176;2023-08-06T14:49:21;16.00;79.90
14727;DHT22;7454;51.256;8.176;2023-08-06T14:51:47;16.00;80.20
14727;DHT22;7454;51.256;8.176;2023-08-06T14:54:12;16.00;80.20
14727;DHT22;7454;51.256;8.176;2023-08-06T14:56:38;15.90;80.10
14727;DHT22;7454;51.256;8.176;2023-08-06T14:59:04;15.80;80.00
14727;DHT22;7454;51.256;8.176;2023-08-06T15:01:30;15.80;80.00
14727;DHT22;7454;51.256;8.176;2023-08-06T15:03:56;15.70;80.20
14727;DHT22;7454;51.256;8.176;2023-08-06T15:06:21;15.60;80.00
14727;DHT22;7454;51.256;8.176;2023-08-06T15:08:47;15.60;80.20
14727;DHT22;7454;51.256;8.176;2023-08-06T15:11:13;15.50;79.80
14727;DHT22;7454;51.256;8.176;2023-08-06T15:13:41;15.50;80.30
14727;DHT22;7454;51.256;8.176;2023-08-06T15:16:07;15.30;80.20
14727;DHT22;7454;51.256;8.176;2023-08-06T15:18:32;15.30;80.20
14727;DHT22;7454;51.256;8.176;2023-08-06T15:20:58;15.30;80.30
14727;DHT22;7454;51.256;8.176;2023-08-06T15:23:24;15.30;80.30
14727;DHT22;7454;51.256;8.176;2023-08-06T15:25:50;15.30;80.40
14727;DHT22;7454;51.256;8.176;2023-08-06T15:28:15;15.30;80.20
14727;DHT22;7454;51.256;8.176;2023-08-06T15:30:48;15.30;80.40
14727;DHT22;7454;51.256;8.176;2023-08-06T15:33:15;15.30;80.30
14727;DHT22;7454;51.256;8.176;2023-08-06T15:35:41;15.20;80.40
14727;DHT22;7454;51.256;8.176;2023-08-06T15:38:06;15.40;80.50
14727;DHT22;7454;51.256;8.176;2023-08-06T15:40:32;15.40;80.50
14727;DHT22;7454;51.256;8.176;2023-08-06T15:42:58;15.40;80.60
14727;DHT22;7454;51.256;8.176;2023-08-06T15:45:23;15.40;80.50